Time;durP1;ratioP1;P1;durP2;ratioP2;P2;SDS_P1;SDS_P2;PMS_P1;PMS_P2;Temp;Humidity;BMP_temperature;BMP_pressure;BME280_temperature;BME280_humidity;BME280_pressure;Samples;Min_cycle;Max_cycle;Signal;HPM_P1;HPM_P2
2021/04/30 00:01:11;;;;;;;9.95;2.35;;;7.50;99.90;;;;;;5094576;28;20027;-76
2021/04/30 00:03:36;;;;;;;15.65;2.75;;;7.40;99.90;;;;;;5076550;28;20020;-76
2021/04/30 00:06:02;;;;;;;7.50;2.85;;;7.40;99.90;;;;;;5079494;28;20573;-76
2021/04/30 00:08:27;;;;;;;7.68;2.30;;;7.40;99.90;;;;;;5074640;28;20029;-76
2021/04/30 00:10:53;;;;;;;12.57;3.30;;;7.40;99.90;;;;;;5056317;28;20016;-76
2021/04/30 00:13:19;;;;;;;13.68;3.53;;;7.40;99.90;;;;;;5056011;28;20564;-76
2021/04/30 00:15:45;;;;;;;17.92;2.50;;;7.40;99.90;;;;;;5074229;28;20504;-76
2021/04/30 00:18:11;;;;;;;12.02;2.03;;;7.40;99.90;;;;;;5056375;28;20043;-76
2021/04/30 00:20:41;;;;;;;11.85;3.00;;;7.40;99.90;;;;;;5074045;28;20025;-76
2021/04/30 00:23:12;;;;;;;10.07;2.67;;;7.40;99.90;;;;;;5056350;28;20027;-76
2021/04/30 00:25:41;;;;;;;9.50;2.63;;;7.40;99.90;;;;;;5083083;28;20114;-76
2021/04/30 00:28:06;;;;;;;;;;;7.40;99.90;;;;;;5094983;28;20570;-76
2021/04/30 00:30:32;;;;;;;22.23;3.10;;;7.40;99.90;;;;;;5075737;28;19904;-76
2021/04/30 00:32:58;;;;;;;9.30;2.25;;;7.40;99.90;;;;;;5076183;28;20020;-76
2021/04/30 00:35:24;;;;;;;13.00;3.42;;;7.40;99.90;;;;;;5094207;28;20105;-76
2021/04/30 00:37:50;;;;;;;14.55;2.42;;;7.40;99.90;;;;;;5094118;28;20023;-76
2021/04/30 00:40:16;;;;;;;10.38;1.85;;;7.40;99.90;;;;;;5076177;28;20020;-76
2021/04/30 00:42:42;;;;;;;9.07;1.88;;;7.40;99.90;;;;;;5075972;28;20020;-76
2021/04/30 00:45:08;;;;;;;8.50;1.60;;;7.40;99.90;;;;;;5094857;28;20081;-76
2021/04/30 00:47:36;;;;;;;14.18;2.35;;;7.50;99.90;;;;;;5094285;28;20546;-76
2021/04/30 00:50:05;;;;;;;15.27;1.95;;;7.50;99.90;;;;;;5075926;28;20024;-76
2021/04/30 00:52:31;;;;;;;6.53;1.83;;;7.50;99.90;;;;;;5093866;28;20430;-76
2021/04/30 00:55:00;;;;;;;14.15;2.28;;;7.40;99.90;;;;;;5094170;28;20020;-76
2021/04/30 00:57:26;;;;;;;10.65;3.28;;;7.40;99.90;;;;;;5093788;28;20023;-76
2021/04/30 00:59:52;;;;;;;10.32;2.13;;;7.80;99.90;;;;;;5075678;28;20024;-74
2021/04/30 01:02:18;;;;;;;9.13;3.03;;;7.40;99.90;;;;;;5094178;28;20031;-74
2021/04/30 01:04:44;;;;;;;16.70;2.47;;;7.40;99.90;;;;;;5094046;28;20028;-74
2021/04/30 01:07:09;;;;;;;14.45;1.80;;;7.40;99.90;;;;;;5094218;28;20012;-74
2021/04/30 01:09:35;;;;;;;15.93;2.17;;;7.40;99.90;;;;;;5094454;28;20365;-74
2021/04/30 01:12:01;;;;;;;12.15;2.15;;;7.40;99.90;;;;;;5093992;28;20532;-74
2021/04/30 01:14:28;;;;;;;16.95;2.38;;;7.40;99.90;;;;;;5083453;28;20415;-74
2021/04/30 01:16:54;;;;;;;16.15;2.88;;;7.40;99.90;;;;;;5074272;28;20021;-74
2021/04/30 01:19:21;;;;;;;8.98;2.17;;;7.40;99.90;;;;;;5055589;28;20435;-74
2021/04/30 01:21:54;;;;;;;13.30;2.05;;;7.40;99.90;;;;;;5055340;28;20495;-74
2021/04/30 01:24:20;;;;;;;12.77;2.10;;;7.40;99.90;;;;;;5073495;28;20456;-74
2021/04/30 01:26:46;;;;;;;11.18;3.70;;;7.40;99.90;;;;;;5073595;28;20078;-74
2021/04/30 01:29:12;;;;;;;13.23;2.33;;;7.40;99.90;;;;;;5073397;28;20025;-74
2021/04/30 01:31:38;;;;;;;7.05;1.55;;;7.40;99.90;;;;;;5055407;28;20075;-75
2021/04/30 01:34:04;;;;;;;10.07;3.05;;;7.40;99.90;;;;;;5055407;28;20017;-75
2021/04/30 01:36:31;;;;;;;12.55;2.83;;;7.50;99.90;;;;;;5073467;28;20020;-75
2021/04/30 01:38:57;;;;;;;12.82;2.95;;;7.50;99.90;;;;;;5055398;28;20117;-75
2021/04/30 01:41:23;;;;;;;9.07;2.13;;;7.50;99.90;;;;;;5073497;28;20385;-75
2021/04/30 01:43:49;;;;;;;13.45;2.50;;;7.50;99.90;;;;;;5055285;28;20060;-75
2021/04/30 01:46:14;;;;;;;13.57;2.60;;;7.50;99.90;;;;;;5055614;28;20028;-75
2021/04/30 01:48:40;;;;;;;10.75;2.60;;;7.50;99.90;;;;;;5055262;28;20028;-75
2021/04/30 01:51:06;;;;;;;5.90;1.70;;;7.50;99.90;;;;;;5057851;28;20025;-75
2021/04/30 01:53:36;;;;;;;14.07;2.47;;;7.50;99.90;;;;;;5077301;28;20481;-74
2021/04/30 01:56:04;;;;;;;6.47;1.88;;;7.50;99.90;;;;;;5077343;28;20017;-73
2021/04/30 01:58:30;;;;;;;11.82;2.67;;;7.50;99.90;;;;;;5058641;28;20025;-74
2021/04/30 02:00:56;;;;;;;11.93;2.95;;;7.50;99.90;;;;;;5077057;28;20027;-75
2021/04/30 02:03:23;;;;;;;8.07;3.08;;;7.50;99.90;;;;;;5058860;28;20030;-74
2021/04/30 02:05:49;;;;;;;11.02;2.20;;;7.50;99.90;;;;;;5077270;28;20024;-73
2021/04/30 02:08:15;;;;;;;15.05;2.72;;;7.50;99.90;;;;;;5059204;28;20481;-74
2021/04/30 02:10:43;;;;;;;9.45;1.90;;;7.50;99.90;;;;;;5059041;28;20035;-73
2021/04/30 02:13:10;;;;;;;17.13;2.17;;;7.50;99.90;;;;;;5076518;28;20020;-74
2021/04/30 02:15:44;;;;;;;9.55;1.75;;;7.50;99.90;;;;;;5076887;28;20024;-75
2021/04/30 02:18:10;;;;;;;14.20;3.17;;;7.50;99.90;;;;;;5076799;28;20020;-75
2021/04/30 02:20:36;;;;;;;10.15;2.53;;;7.50;99.90;;;;;;5058756;28;20020;-73
2021/04/30 02:23:02;;;;;;;7.93;1.95;;;7.50;99.90;;;;;;5076745;28;20028;-73
2021/04/30 02:25:29;;;;;;;7.57;2.58;;;7.60;99.90;;;;;;5077467;28;20025;-74
2021/04/30 02:27:57;;;;;;;8.18;2.88;;;7.60;99.90;;;;;;5076502;28;20472;-73
2021/04/30 02:30:24;;;;;;;9.50;3.10;;;7.60;99.90;;;;;;5076596;28;20104;-74
2021/04/30 02:32:51;;;;;;;11.52;2.20;;;7.60;99.90;;;;;;5076455;28;20279;-74
2021/04/30 02:35:20;;;;;;;13.00;3.33;;;7.60;99.90;;;;;;5076630;28;20020;-75
2021/04/30 02:37:46;;;;;;;;;;;7.60;99.90;;;;;;5076494;28;20108;-74
2021/04/30 02:40:17;;;;;;;13.30;3.08;;;7.60;99.90;;;;;;5076307;28;19955;-74
2021/04/30 02:42:44;;;;;;;12.80;3.80;;;7.60;99.90;;;;;;5076467;28;20493;-77
2021/04/30 02:45:11;;;;;;;10.25;3.10;;;7.60;99.90;;;;;;5076187;28;20469;-75
2021/04/30 02:47:37;;;;;;;15.65;2.42;;;7.60;99.90;;;;;;5058653;28;20021;-74
2021/04/30 02:50:05;;;;;;;12.55;2.47;;;7.60;99.90;;;;;;5076283;28;20028;-75
2021/04/30 02:52:31;;;;;;;16.95;3.72;;;7.60;99.90;;;;;;5076324;28;20029;-74
2021/04/30 02:54:57;;;;;;;13.32;2.90;;;7.60;99.90;;;;;;5076857;28;20374;-74
2021/04/30 02:57:22;;;;;;;12.80;3.83;;;7.60;99.90;;;;;;5076747;28;20181;-75
2021/04/30 02:59:48;;;;;;;8.98;3.13;;;7.60;99.90;;;;;;5076333;28;20056;-74
2021/04/30 03:02:14;;;;;;;17.13;3.15;;;7.60;99.90;;;;;;5058056;28;20129;-74
2021/04/30 03:04:41;;;;;;;8.38;3.20;;;7.60;99.90;;;;;;5075942;28;20027;-74
2021/04/30 03:07:07;;;;;;;14.20;3.78;;;7.50;99.90;;;;;;5076298;28;20029;-73
2021/04/30 03:09:33;;;;;;;14.35;2.83;;;7.50;99.90;;;;;;5076138;28;20522;-73
2021/04/30 03:11:59;;;;;;;12.30;3.78;;;7.50;99.90;;;;;;5076507;28;20025;-73
2021/04/30 03:14:25;;;;;;;10.45;3.03;;;7.50;99.90;;;;;;5075926;28;20111;-74
2021/04/30 03:16:50;;;;;;;10.82;2.95;;;7.50;99.90;;;;;;5057930;28;20020;-73
2021/04/30 03:19:16;;;;;;;9.30;2.88;;;7.50;99.90;;;;;;5075259;28;20017;-73
2021/04/30 03:21:42;;;;;;;14.95;3.30;;;7.50;99.90;;;;;;5075772;28;20016;-75
2021/04/30 03:24:08;;;;;;;10.98;2.78;;;7.50;99.90;;;;;;5075638;28;20461;-74
2021/04/30 03:26:34;;;;;;;12.35;3.60;;;7.50;99.90;;;;;;5075041;28;20053;-73
2021/04/30 03:29:01;;;;;;;13.48;3.60;;;7.50;99.90;;;;;;5075314;28;20055;-73
2021/04/30 03:31:26;;;;;;;9.43;2.88;;;7.50;99.90;;;;;;5075413;28;20029;-73
2021/04/30 03:33:52;;;;;;;10.82;3.10;;;7.60;99.90;;;;;;5075737;28;20021;-73
2021/04/30 03:36:19;;;;;;;12.32;3.75;;;7.50;99.90;;;;;;5075177;28;20024;-73
2021/04/30 03:38:46;;;;;;;14.10;3.70;;;7.50;99.90;;;;;;5075263;28;20017;-73
2021/04/30 03:41:11;;;;;;;7.72;3.05;;;7.60;99.90;;;;;;5057059;28;20074;-73
2021/04/30 03:43:37;;;;;;;13.75;4.03;;;7.60;99.90;;;;;;5057301;28;20020;-73
2021/04/30 03:46:02;;;;;;;7.97;3.05;;;7.60;99.90;;;;;;5075523;28;20052;-73
2021/04/30 03:48:29;;;;;;;11.18;3.33;;;7.60;99.90;;;;;;5074868;28;20033;-73
2021/04/30 03:50:54;;;;;;;12.98;3.88;;;7.60;99.90;;;;;;5075117;28;20032;-73
2021/04/30 03:53:21;;;;;;;21.98;4.93;;;7.60;99.90;;;;;;5075080;28;20029;-73
2021/04/30 03:55:47;;;;;;;19.17;3.83;;;7.60;99.90;;;;;;5074636;28;20016;-73
2021/04/30 03:58:13;;;;;;;14.10;4.28;;;7.60;99.90;;;;;;5074790;28;20407;-73
2021/04/30 04:00:38;;;;;;;30.70;4.50;;;7.70;99.90;;;;;;5074571;28;20093;-73
2021/04/30 04:03:04;;;;;;;14.43;4.82;;;7.70;99.90;;;;;;5074594;28;20029;-74
2021/04/30 04:05:29;;;;;;;17.13;4.38;;;7.70;99.90;;;;;;5075124;28;20028;-74
2021/04/30 04:07:55;;;;;;;13.05;3.85;;;7.70;99.90;;;;;;5075138;28;20070;-75
2021/04/30 04:10:20;;;;;;;15.50;4.60;;;7.70;99.90;;;;;;5074864;28;20384;-75
2021/04/30 04:12:46;;;;;;;15.15;4.15;;;7.70;99.90;;;;;;5073848;28;20028;-73
2021/04/30 04:15:12;;;;;;;15.73;4.68;;;7.70;99.90;;;;;;5056757;28;20025;-74
2021/04/30 04:17:37;;;;;;;18.40;4.72;;;7.70;99.90;;;;;;5056719;28;20029;-74
2021/04/30 04:20:04;;;;;;;14.98;4.35;;;7.70;99.90;;;;;;5056092;28;20031;-74
2021/04/30 04:22:30;;;;;;;20.48;6.00;;;7.70;99.90;;;;;;5056362;28;20059;-74
2021/04/30 04:24:55;;;;;;;15.07;4.53;;;7.70;99.90;;;;;;5059298;28;20469;-75
2021/04/30 04:27:20;;;;;;;15.60;4.82;;;7.70;99.90;;;;;;5076567;28;20053;-75
2021/04/30 04:29:46;;;;;;;17.10;4.45;;;7.70;99.90;;;;;;5094808;28;20430;-74
2021/04/30 04:32:12;;;;;;;19.05;5.38;;;7.70;99.90;;;;;;5076079;28;20140;-73
2021/04/30 04:34:38;;;;;;;12.38;4.90;;;7.70;99.90;;;;;;5094759;28;20469;-74
2021/04/30 04:37:04;;;;;;;16.17;4.80;;;7.70;99.90;;;;;;5075717;28;20020;-76
2021/04/30 04:39:31;;;;;;;13.98;5.18;;;7.70;99.90;;;;;;5094326;28;20077;-73
2021/04/30 04:41:57;;;;;;;19.35;5.50;;;7.80;99.90;;;;;;5094656;28;20392;-75
2021/04/30 04:44:23;;;;;;;22.63;7.28;;;7.80;99.90;;;;;;5094853;28;20075;-74
2021/04/30 04:46:48;;;;;;;16.35;5.50;;;7.70;99.90;;;;;;5094424;28;20400;-75
2021/04/30 04:49:14;;;;;;;23.40;6.88;;;7.70;99.90;;;;;;5094147;28;20030;-74
2021/04/30 04:51:40;;;;;;;16.70;6.35;;;7.70;99.90;;;;;;5094524;28;20130;-74
2021/04/30 04:54:09;;;;;;;15.35;5.38;;;7.70;99.90;;;;;;5094119;28;20020;-76
2021/04/30 04:56:34;;;;;;;19.05;7.15;;;7.70;99.90;;;;;;5076758;28;20503;-75
2021/04/30 04:59:00;;;;;;;18.73;5.68;;;7.70;99.90;;;;;;5094763;28;20017;-74
2021/04/30 05:01:26;;;;;;;22.33;6.65;;;7.70;99.90;;;;;;5076287;28;20065;-74
2021/04/30 05:03:52;;;;;;;18.63;6.85;;;7.70;99.90;;;;;;5094136;28;20387;-74
2021/04/30 05:06:18;;;;;;;24.48;6.82;;;7.70;99.90;;;;;;5094111;28;20096;-75
2021/04/30 05:08:43;;;;;;;23.52;7.78;;;7.70;99.90;;;;;;5075765;28;20035;-75
2021/04/30 05:11:09;;;;;;;26.95;8.32;;;7.70;99.90;;;;;;5094350;28;20511;-74
2021/04/30 05:13:34;;;;;;;23.23;7.22;;;7.70;99.90;;;;;;5090414;28;20508;-74
2021/04/30 05:16:01;;;;;;;23.15;7.32;;;7.70;99.90;;;;;;5055766;28;20028;-74
2021/04/30 05:18:27;;;;;;;26.52;8.63;;;7.70;99.90;;;;;;5055515;28;20020;-74
2021/04/30 05:20:54;;;;;;;16.15;7.55;;;7.70;99.90;;;;;;5073524;28;20024;-75
2021/04/30 05:23:20;;;;;;;17.40;7.00;;;7.80;99.90;;;;;;5074036;28;20052;-74
2021/04/30 05:25:48;;;;;;;15.85;7.25;;;7.80;99.90;;;;;;5077975;28;20052;-74
2021/04/30 05:28:14;;;;;;;22.10;7.70;;;7.80;99.90;;;;;;5059570;28;20066;-75
2021/04/30 05:30:40;;;;;;;21.35;8.30;;;7.80;99.90;;;;;;5059395;28;20405;-75
2021/04/30 05:33:05;;;;;;;21.75;7.65;;;7.80;99.90;;;;;;5059757;28;20020;-74
2021/04/30 05:35:31;;;;;;;24.85;7.72;;;7.70;99.90;;;;;;5077426;28;20017;-74
2021/04/30 05:37:57;;;;;;;21.23;8.68;;;7.80;99.90;;;;;;5059393;28;20111;-75
2021/04/30 05:40:23;;;;;;;20.90;7.95;;;7.80;99.90;;;;;;5059402;28;20064;-75
2021/04/30 05:42:49;;;;;;;15.35;7.10;;;7.80;99.90;;;;;;5077170;28;20036;-75
2021/04/30 05:45:15;;;;;;;19.48;7.45;;;7.80;99.90;;;;;;5077305;28;20462;-73
2021/04/30 05:47:40;;;;;;;23.63;8.23;;;7.80;99.90;;;;;;5077772;28;20124;-74
2021/04/30 05:50:07;;;;;;;22.67;7.50;;;7.90;99.90;;;;;;5059728;28;20025;-74
2021/04/30 05:52:32;;;;;;;23.73;8.02;;;7.90;99.90;;;;;;5077398;28;20432;-74
2021/04/30 05:54:59;;;;;;;21.50;7.45;;;7.90;99.90;;;;;;5059257;28;20021;-73
2021/04/30 05:57:25;;;;;;;24.27;7.88;;;7.80;99.90;;;;;;5077029;28;20020;-73
2021/04/30 05:59:50;;;;;;;23.35;8.80;;;7.80;99.90;;;;;;5076933;28;20016;-75
2021/04/30 06:04:44;;;;;;;18.00;7.82;;;7.80;99.90;;;;;;5075678;28;20052;-75
2021/04/30 06:07:09;;;;;;;24.25;7.80;;;7.80;99.90;;;;;;5058584;28;20028;-74
2021/04/30 06:09:35;;;;;;;21.42;7.97;;;7.80;99.90;;;;;;5076954;28;20027;-74
2021/04/30 06:12:00;;;;;;;19.38;8.32;;;7.80;99.90;;;;;;5077207;28;20071;-73
2021/04/30 06:14:30;;;;;;;26.67;7.55;;;7.80;99.90;;;;;;5076924;28;20031;-74
2021/04/30 06:16:54;;;;;;;18.43;8.37;;;7.80;99.90;;;;;;5075063;28;20041;-76
2021/04/30 06:19:19;;;;;;;22.42;8.20;;;7.80;99.90;;;;;;5084847;28;20046;-75
2021/04/30 06:21:45;;;;;;;16.83;8.82;;;7.80;99.90;;;;;;5078749;28;20027;-75
2021/04/30 06:24:10;;;;;;;22.80;9.48;;;7.80;99.90;;;;;;5096952;28;20020;-74
2021/04/30 06:26:36;;;;;;;20.85;8.93;;;7.80;99.90;;;;;;5096517;28;20023;-75
2021/04/30 06:29:02;;;;;;;19.58;9.25;;;7.80;99.90;;;;;;5096721;28;20024;-75
2021/04/30 06:31:27;;;;;;;21.77;8.85;;;7.80;99.90;;;;;;5096943;28;20025;-75
2021/04/30 06:33:53;;;;;;;19.08;8.50;;;7.80;99.90;;;;;;5096366;28;20063;-75
2021/04/30 06:36:18;;;;;;;19.55;7.88;;;7.90;99.90;;;;;;5077406;28;20024;-75
2021/04/30 06:38:44;;;;;;;22.23;8.48;;;7.80;99.90;;;;;;5078303;28;20107;-76
2021/04/30 06:41:10;;;;;;;15.82;7.40;;;7.90;99.90;;;;;;5096534;28;20028;-75
2021/04/30 06:43:35;;;;;;;16.17;8.48;;;7.90;99.90;;;;;;5096583;28;20024;-75
2021/04/30 06:46:01;;;;;;;18.15;8.35;;;7.90;99.90;;;;;;5096158;28;20042;-76
2021/04/30 06:48:26;;;;;;;20.67;8.55;;;8.00;99.90;;;;;;5096262;28;20035;-76
2021/04/30 06:50:52;;;;;;;17.08;7.78;;;8.00;99.90;;;;;;5077429;28;20035;-75
2021/04/30 06:53:18;;;;;;;23.00;8.63;;;8.00;99.90;;;;;;5095377;28;20031;-77
2021/04/30 06:55:43;;;;;;;18.40;8.23;;;8.10;99.90;;;;;;5077852;28;20027;-75
2021/04/30 06:58:09;;;;;;;15.60;8.38;;;8.10;99.90;;;;;;5095742;28;20031;-74
2021/04/30 07:00:34;;;;;;;17.63;8.82;;;8.20;99.90;;;;;;5112248;28;20027;-74
2021/04/30 07:03:00;;;;;;;17.45;8.70;;;8.20;99.90;;;;;;5116039;28;20028;-75
2021/04/30 07:05:29;;;;;;;16.30;8.52;;;8.30;99.90;;;;;;5116082;28;20036;-74
2021/04/30 07:07:57;;;;;;;20.00;8.57;;;8.20;99.90;;;;;;5098134;28;20472;-76
2021/04/30 07:10:23;;;;;;;18.30;7.95;;;8.30;99.90;;;;;;5078546;28;20063;-75
2021/04/30 07:12:50;;;;;;;19.23;8.10;;;8.30;99.90;;;;;;5095878;28;20032;-75
2021/04/30 07:15:17;;;;;;;20.05;9.15;;;8.30;99.90;;;;;;5095947;28;20028;-75
2021/04/30 07:17:43;;;;;;;18.67;9.68;;;8.30;99.90;;;;;;5077511;28;20021;-75
2021/04/30 07:20:09;;;;;;;18.05;8.65;;;8.30;99.90;;;;;;5095486;28;20035;-74
2021/04/30 07:22:34;;;;;;;23.80;9.27;;;8.30;99.90;;;;;;5095349;28;20024;-74
2021/04/30 07:25:00;;;;;;;16.45;8.80;;;8.30;99.90;;;;;;5081622;28;20020;-74
2021/04/30 07:27:25;;;;;;;18.77;9.85;;;8.30;99.90;;;;;;5097459;28;20114;-75
2021/04/30 07:29:51;;;;;;;16.35;8.55;;;8.30;99.90;;;;;;5096526;28;20047;-74
2021/04/30 07:32:17;;;;;;;16.33;8.65;;;8.40;99.90;;;;;;5096510;28;20468;-75
2021/04/30 07:34:42;;;;;;;17.98;9.50;;;8.40;99.90;;;;;;5100851;28;20039;-75
2021/04/30 07:37:08;;;;;;;20.70;9.15;;;8.40;99.90;;;;;;5095259;28;20030;-75
2021/04/30 07:39:34;;;;;;;20.67;9.55;;;8.40;99.90;;;;;;5095255;28;20425;-75
2021/04/30 07:42:00;;;;;;;14.63;7.80;;;8.40;99.90;;;;;;5095031;28;20020;-75
2021/04/30 07:44:25;;;;;;;17.48;8.20;;;8.40;99.90;;;;;;5085856;28;20363;-74
2021/04/30 07:46:51;;;;;;;18.33;8.98;;;8.50;99.90;;;;;;5075110;28;20078;-73
2021/04/30 07:49:16;;;;;;;16.95;8.52;;;8.50;99.90;;;;;;5074383;28;20024;-74
2021/04/30 07:51:42;;;;;;;13.30;7.03;;;8.50;99.90;;;;;;5079923;28;20020;-76
2021/04/30 07:54:07;;;;;;;13.90;7.40;;;8.50;99.90;;;;;;5093714;28;20035;-74
2021/04/30 07:56:33;;;;;;;11.20;6.70;;;8.50;99.90;;;;;;5077250;28;20016;-75
2021/04/30 07:58:58;;;;;;;13.43;7.25;;;8.50;99.90;;;;;;5094944;28;20056;-75
2021/04/30 08:01:24;;;;;;;12.50;6.53;;;8.50;99.90;;;;;;5094448;28;20099;-75
2021/04/30 08:03:50;;;;;;;10.10;6.60;;;8.50;99.90;;;;;;5077200;28;20090;-76
2021/04/30 08:06:15;;;;;;;8.02;4.53;;;8.50;99.90;;;;;;5071146;23;20045;-75
2021/04/30 08:08:41;;;;;;;7.65;5.35;;;8.50;99.90;;;;;;5077294;28;20072;-74
2021/04/30 08:11:07;;;;;;;8.98;4.78;;;8.50;99.90;;;;;;5093416;28;20467;-75
2021/04/30 08:13:34;;;;;;;9.18;4.75;;;8.60;99.90;;;;;;5076328;28;20020;-74
2021/04/30 08:16:01;;;;;;;12.18;4.68;;;8.60;99.90;;;;;;5095256;28;20020;-74
2021/04/30 08:18:27;;;;;;;7.90;4.25;;;8.60;99.90;;;;;;5094604;28;20016;-75
2021/04/30 08:20:52;;;;;;;15.48;5.78;;;8.60;99.90;;;;;;5076586;28;20031;-75
2021/04/30 08:23:18;;;;;;;10.10;5.32;;;8.70;99.90;;;;;;5088235;23;20048;-76
2021/04/30 08:25:43;;;;;;;10.05;5.47;;;8.70;99.90;;;;;;5080316;28;20487;-77
2021/04/30 08:28:09;;;;;;;11.15;5.25;;;8.60;99.90;;;;;;5115513;28;20073;-74
2021/04/30 08:30:35;;;;;;;8.90;5.15;;;8.60;99.90;;;;;;5114972;28;20023;-74
2021/04/30 08:33:00;;;;;;;9.35;4.75;;;8.60;99.90;;;;;;5114996;28;20038;-76
2021/04/30 08:35:29;;;;;;;10.43;5.18;;;8.60;99.90;;;;;;5118964;22;20043;-75
2021/04/30 08:37:55;;;;;;;8.48;5.05;;;8.60;99.90;;;;;;5076493;28;20020;-73
2021/04/30 08:40:21;;;;;;;9.18;5.32;;;8.60;99.90;;;;;;5094792;28;20070;-75
2021/04/30 08:42:47;;;;;;;7.15;4.18;;;8.60;99.90;;;;;;5094483;28;20427;-77
2021/04/30 08:45:14;;;;;;;7.57;4.30;;;8.60;99.90;;;;;;5093693;28;20024;-76
2021/04/30 08:47:41;;;;;;;7.10;4.50;;;8.50;99.90;;;;;;5092642;28;20028;-77
2021/04/30 08:50:07;;;;;;;7.50;4.82;;;8.50;99.90;;;;;;5092554;28;20028;-76
2021/04/30 08:52:33;;;;;;;8.20;5.15;;;8.50;99.90;;;;;;5092180;28;20485;-76
2021/04/30 08:55:04;;;;;;;7.63;5.13;;;8.50;99.90;;;;;;5092726;28;20031;-76
2021/04/30 08:57:30;;;;;;;7.55;4.65;;;8.50;99.90;;;;;;5093992;28;20020;-76
2021/04/30 08:59:57;;;;;;;8.80;4.88;;;8.40;99.90;;;;;;5098033;28;20411;-76
2021/04/30 09:02:41;;;;;;;10.02;5.15;;;8.40;99.90;;;;;;5099276;28;20020;-76
2021/04/30 09:05:10;;;;;;;7.55;5.20;;;8.40;99.90;;;;;;5101491;28;20032;-74
2021/04/30 09:07:43;;;;;;;13.07;5.90;;;8.40;99.90;;;;;;5095230;28;20027;-76
2021/04/30 09:10:14;;;;;;;10.07;6.30;;;8.40;99.90;;;;;;5100795;28;20035;-77
2021/04/30 09:12:41;;;;;;;10.05;5.25;;;8.40;99.90;;;;;;5100696;28;20023;-75
2021/04/30 09:15:17;;;;;;;11.88;6.30;;;8.40;99.90;;;;;;5110151;22;20055;-74
2021/04/30 09:17:44;;;;;;;11.65;6.72;;;8.40;99.90;;;;;;5086597;28;20020;-74
2021/04/30 09:20:10;;;;;;;12.05;7.00;;;8.40;99.90;;;;;;5130685;22;20429;-75
2021/04/30 09:22:39;;;;;;;9.95;6.53;;;8.40;99.90;;;;;;5101233;28;20341;-75
2021/04/30 09:25:08;;;;;;;13.90;6.72;;;8.40;99.90;;;;;;5101366;28;20020;-78
2021/04/30 09:27:39;;;;;;;12.23;7.15;;;8.40;99.90;;;;;;5100650;28;20145;-75
2021/04/30 09:30:13;;;;;;;18.13;7.78;;;8.40;99.90;;;;;;5082644;28;20077;-79
2021/04/30 09:33:04;;;;;;;12.23;6.78;;;8.30;99.90;;;;;;5101194;28;20040;-76
2021/04/30 09:35:31;;;;;;;15.73;7.95;;;8.30;99.90;;;;;;5082882;28;20016;-77
2021/04/30 09:37:57;;;;;;;12.23;7.60;;;8.40;99.90;;;;;;5082933;28;20074;-77
2021/04/30 09:40:30;;;;;;;14.18;8.23;;;8.40;99.90;;;;;;5083079;28;20365;-75
2021/04/30 09:43:06;;;;;;;12.90;7.88;;;8.40;99.90;;;;;;5118711;22;20075;-76
2021/04/30 09:45:32;;;;;;;14.45;7.57;;;8.40;99.90;;;;;;5061670;28;20017;-75
2021/04/30 09:48:02;;;;;;;16.08;7.85;;;8.40;99.90;;;;;;5061961;28;20028;-76
2021/04/30 09:50:29;;;;;;;14.18;8.27;;;8.40;99.90;;;;;;5080156;28;20028;-77
2021/04/30 09:53:04;;;;;;;14.95;8.30;;;8.40;99.90;;;;;;5065034;28;20031;-77
2021/04/30 09:55:43;;;;;;;18.48;9.43;;;8.50;99.90;;;;;;5101076;28;20024;-75
2021/04/30 09:58:21;;;;;;;17.38;8.75;;;8.50;99.90;;;;;;5100790;28;20499;-76
2021/04/30 10:00:49;;;;;;;16.58;9.80;;;8.50;99.90;;;;;;5082492;28;20101;-78
2021/04/30 10:03:17;;;;;;;17.02;9.02;;;8.60;99.90;;;;;;5098922;28;20055;-76
2021/04/30 10:06:10;;;;;;;16.15;8.52;;;8.60;99.90;;;;;;5048194;28;20028;-75
2021/04/30 10:08:36;;;;;;;15.32;8.43;;;8.70;99.90;;;;;;5062682;28;20024;-75
2021/04/30 10:11:03;;;;;;;17.13;9.05;;;8.70;99.90;;;;;;5059687;28;20028;-75
2021/04/30 10:13:30;;;;;;;15.70;8.60;;;8.70;99.90;;;;;;5077473;28;20084;-74
2021/04/30 10:15:56;;;;;;;15.52;8.93;;;8.70;99.90;;;;;;5077281;28;20012;-74
2021/04/30 10:18:21;;;;;;;18.38;9.73;;;8.80;99.90;;;;;;5076913;28;20386;-75
2021/04/30 10:20:48;;;;;;;17.50;8.80;;;8.80;99.90;;;;;;5076975;28;20031;-75
2021/04/30 10:23:19;;;;;;;17.05;8.88;;;8.80;99.90;;;;;;5077501;28;20442;-74
2021/04/30 10:25:50;;;;;;;18.63;9.30;;;8.90;99.90;;;;;;5059519;28;20021;-75
2021/04/30 10:28:22;;;;;;;18.00;9.27;;;9.00;99.90;;;;;;5089623;28;20028;-75
2021/04/30 10:30:54;;;;;;;19.38;9.25;;;9.00;99.90;;;;;;5099661;28;20031;-74
2021/04/30 10:33:41;;;;;;;15.43;8.13;;;9.00;99.90;;;;;;5117669;28;20384;-74
2021/04/30 10:36:29;;;;;;;17.67;9.20;;;9.10;99.90;;;;;;5099342;28;20051;-74
2021/04/30 10:38:56;;;;;;;17.98;9.57;;;9.10;99.90;;;;;;5099585;28;20020;-75
2021/04/30 10:41:38;;;;;;;20.20;9.38;;;9.20;99.90;;;;;;5117442;28;20059;-74
2021/04/30 10:44:21;;;;;;;18.73;9.45;;;9.20;99.90;;;;;;5117116;28;20027;-74
2021/04/30 10:46:49;;;;;;;16.25;9.57;;;9.30;99.90;;;;;;5117770;28;20496;-74
2021/04/30 10:49:21;;;;;;;17.85;10.07;;;9.30;99.90;;;;;;5099081;28;20020;-74
2021/04/30 10:52:08;;;;;;;21.73;10.38;;;9.40;99.90;;;;;;5117139;28;20111;-74
2021/04/30 10:54:35;;;;;;;16.92;9.73;;;9.50;99.90;;;;;;5099280;28;20024;-75
2021/04/30 10:57:16;;;;;;;19.45;9.93;;;9.80;99.90;;;;;;5096566;28;20064;-75
2021/04/30 10:59:45;;;;;;;17.25;9.52;;;10.00;99.90;;;;;;5096694;28;20012;-75
2021/04/30 11:02:36;;;;;;;20.05;10.70;;;10.20;99.90;;;;;;5096780;28;20024;-75
2021/04/30 11:05:13;;;;;;;16.15;9.50;;;10.20;99.90;;;;;;5100171;28;20015;-75
2021/04/30 11:07:43;;;;;;;21.02;9.63;;;10.30;99.90;;;;;;5097959;28;20036;-75
2021/04/30 11:10:21;;;;;;;15.45;9.38;;;10.20;99.90;;;;;;5098025;28;20034;-75
2021/04/30 11:12:56;;;;;;;18.03;10.13;;;10.20;99.90;;;;;;5097923;28;20112;-75
2021/04/30 11:17:58;;;;;;;18.85;11.00;;;10.10;99.90;;;;;;5053664;28;20537;-75
2021/04/30 11:23:24;;;;;;;21.50;10.48;;;10.20;99.90;;;;;;5081660;28;20051;-75
2021/04/30 11:25:58;;;;;;;22.38;9.07;;;10.30;99.90;;;;;;5093570;28;21861;-75
2021/04/30 11:28:30;;;;;;;24.20;9.95;;;10.50;99.90;;;;;;5074151;28;20047;-75
2021/04/30 11:31:06;;;;;;;18.95;9.32;;;10.60;99.90;;;;;;5095264;28;20058;-75
2021/04/30 11:33:45;;;;;;;19.10;9.63;;;10.70;99.90;;;;;;5068433;28;20427;-75
2021/04/30 11:36:14;;;;;;;19.77;9.80;;;10.70;99.90;;;;;;5077039;28;20389;-77
2021/04/30 11:38:48;;;;;;;24.77;9.93;;;10.80;99.90;;;;;;5074443;28;20093;-77
2021/04/30 11:41:14;;;;;;;18.17;9.35;;;10.80;99.90;;;;;;5055539;28;20029;-75
2021/04/30 11:43:42;;;;;;;17.98;8.95;;;10.90;99.90;;;;;;5070044;28;20028;-76
2021/04/30 11:46:08;;;;;;;19.38;10.27;;;11.00;99.90;;;;;;5057484;28;20481;-76
2021/04/30 11:48:34;;;;;;;18.77;10.02;;;10.80;99.90;;;;;;5056534;28;20393;-76
2021/04/30 11:51:01;;;;;;;19.70;9.23;;;10.80;99.90;;;;;;5074573;28;20432;-76
2021/04/30 11:53:27;;;;;;;19.98;9.57;;;10.70;99.90;;;;;;5074341;28;20035;-75
2021/04/30 11:55:53;;;;;;;17.08;9.75;;;10.60;99.90;;;;;;5074594;28;20099;-75
2021/04/30 11:58:20;;;;;;;17.55;9.93;;;10.40;99.90;;;;;;5056745;28;20028;-75
2021/04/30 12:00:52;;;;;;;20.45;9.75;;;10.40;99.90;;;;;;5074346;28;20500;-75
2021/04/30 12:03:18;;;;;;;18.98;9.30;;;10.30;99.90;;;;;;5056786;28;20027;-75
2021/04/30 12:05:44;;;;;;;17.75;10.20;;;10.20;99.90;;;;;;5056423;28;20389;-75
2021/04/30 12:08:11;;;;;;;17.73;9.85;;;10.20;99.90;;;;;;5056541;28;20443;-75
2021/04/30 12:10:37;;;;;;;16.80;9.52;;;10.30;99.90;;;;;;5056209;28;20109;-75
2021/04/30 12:13:07;;;;;;;15.52;8.68;;;10.40;99.90;;;;;;5073983;28;20469;-76
2021/04/30 12:15:40;;;;;;;19.15;10.15;;;10.60;99.90;;;;;;5074293;28;20017;-76
2021/04/30 12:18:06;;;;;;;20.70;10.70;;;10.90;99.90;;;;;;5056316;28;20027;-76
2021/04/30 12:20:34;;;;;;;22.00;10.05;;;11.00;99.90;;;;;;5073690;28;20107;-76
2021/04/30 12:23:06;;;;;;;19.48;9.65;;;11.00;99.90;;;;;;5073865;28;20425;-76
2021/04/30 12:25:46;;;;;;;15.65;9.35;;;11.00;99.90;;;;;;5073940;28;20030;-76
2021/04/30 12:28:15;;;;;;;17.55;9.05;;;10.90;99.90;;;;;;5055873;28;20029;-76
2021/04/30 12:30:41;;;;;;;16.52;9.35;;;10.90;99.90;;;;;;5074225;28;20414;-76
2021/04/30 12:33:07;;;;;;;19.65;9.02;;;10.90;99.90;;;;;;5055564;28;20166;-75
2021/04/30 12:35:33;;;;;;;15.90;8.82;;;10.80;99.90;;;;;;5073681;28;20040;-76
2021/04/30 12:37:59;;;;;;;14.63;9.23;;;10.70;99.90;;;;;;5073986;28;20024;-75
2021/04/30 12:40:29;;;;;;;18.88;9.00;;;10.70;99.90;;;;;;5073829;28;20016;-75
2021/04/30 12:42:57;;;;;;;19.20;8.77;;;10.70;99.90;;;;;;5055737;28;20028;-76
2021/04/30 12:45:24;;;;;;;18.42;9.45;;;10.70;99.90;;;;;;5073638;28;20055;-75
2021/04/30 12:47:53;;;;;;;15.85;8.82;;;10.70;99.90;;;;;;5055916;28;20024;-76
2021/04/30 12:50:21;;;;;;;14.73;9.48;;;10.70;99.90;;;;;;5056006;28;20028;-76
2021/04/30 12:52:48;;;;;;;14.68;8.65;;;10.60;99.90;;;;;;5055969;28;20068;-76
2021/04/30 12:55:27;;;;;;;20.70;9.25;;;10.60;99.90;;;;;;5055867;28;20062;-76
2021/04/30 12:58:20;;;;;;;16.23;9.00;;;10.80;99.90;;;;;;5074037;28;20470;-76